Time;durP1;ratioP1;P1;durP2;ratioP2;P2;SDS_P1;SDS_P2;PMS_P1;PMS_P2;Temp;Humidity;BMP_temperature;BMP_pressure;BME280_temperature;BME280_humidity;BME280_pressure;Samples;Min_cycle;Max_cycle;Signal;HPM_P1;HPM_P2
2023/08/26 00:03:13;;;;;;;12.68;10.93;;;;;;;;;;10023202;28;20057;-78
2023/08/26 00:08:06;;;;;;;13.35;11.82;;;;;;;;;;10048037;28;20170;-76
2023/08/26 00:12:58;;;;;;;11.27;10.32;;;;;;;;;;10068395;28;20455;-77
2023/08/26 00:17:49;;;;;;;14.07;11.80;;;;;;;;;;10064007;28;20144;-76
2023/08/26 00:22:41;;;;;;;13.30;11.82;;;;;;;;;;10062882;28;20077;-76
2023/08/26 00:27:33;;;;;;;12.13;11.13;;;;;;;;;;10063569;28;20041;-74
2023/08/26 00:32:25;;;;;;;11.02;10.00;;;;;;;;;;10041844;28;20038;-76
2023/08/26 00:37:17;;;;;;;11.18;10.00;;;;;;;;;;10029174;28;20484;-77
2023/08/26 00:42:11;;;;;;;14.93;10.65;;;;;;;;;;9972422;28;20054;-78
2023/08/26 00:47:03;;;;;;;14.13;10.63;;;;;;;;;;10001744;28;20426;-77
2023/08/26 00:51:55;;;;;;;11.77;10.65;;;;;;;;;;10046473;28;20072;-78
2023/08/26 00:56:47;;;;;;;10.93;9.63;;;;;;;;;;10028894;28;20042;-79
2023/08/26 01:01:41;;;;;;;11.05;10.05;;;;;;;;;;10017242;28;20121;-78
2023/08/26 01:06:33;;;;;;;12.70;9.88;;;;;;;;;;10009992;28;20041;-75
2023/08/26 01:11:40;;;;;;;11.60;10.40;;;;;;;;;;10047560;28;20053;-75
2023/08/26 01:16:34;;;;;;;;;;;;;;;;;;10032335;28;20481;-78
2023/08/26 01:21:32;;;;;;;19.23;11.27;;;;;;;;;;10026270;28;19921;-76
2023/08/26 01:26:23;;;;;;;11.18;10.13;;;;;;;;;;10018218;28;20465;-75
2023/08/26 01:31:16;;;;;;;11.35;10.35;;;;;;;;;;10044754;28;20058;-78
2023/08/26 01:36:11;;;;;;;11.73;10.48;;;;;;;;;;10058807;28;20042;-80
2023/08/26 01:41:03;;;;;;;12.85;11.75;;;;;;;;;;10002661;28;20129;-77
2023/08/26 01:45:55;;;;;;;14.27;12.98;;;;;;;;;;10014511;28;20431;-78
2023/08/26 01:50:47;;;;;;;15.88;12.48;;;;;;;;;;10008983;28;20061;-77
2023/08/26 01:55:39;;;;;;;14.32;13.02;;;;;;;;;;10008230;28;20124;-80
2023/08/26 02:00:31;;;;;;;15.68;14.05;;;;;;;;;;10038412;28;20085;-78
2023/08/26 02:05:24;;;;;;;12.80;11.57;;;;;;;;;;10039908;28;20047;-77
2023/08/26 02:10:16;;;;;;;14.05;12.75;;;;;;;;;;9995633;28;20468;-78
2023/08/26 02:15:08;;;;;;;12.23;11.02;;;;;;;;;;10022156;28;20140;-79
2023/08/26 02:20:00;;;;;;;12.70;11.68;;;;;;;;;;10064676;28;20080;-76
2023/08/26 02:24:52;;;;;;;13.18;11.77;;;;;;;;;;10029607;28;20125;-78
2023/08/26 02:29:44;;;;;;;11.82;10.63;;;;;;;;;;10006931;28;20054;-76
2023/08/26 02:34:37;;;;;;;14.00;11.40;;;;;;;;;;10024647;28;20096;-77
2023/08/26 02:39:29;;;;;;;14.00;11.50;;;;;;;;;;10023929;28;20148;-75
2023/08/26 02:44:20;;;;;;;14.45;13.15;;;;;;;;;;10005797;28;20041;-78
2023/08/26 02:49:12;;;;;;;14.90;12.95;;;;;;;;;;10023548;28;20037;-78
2023/08/26 02:54:04;;;;;;;14.55;13.15;;;;;;;;;;10011218;28;20405;-78
2023/08/26 02:58:56;;;;;;;16.10;12.45;;;;;;;;;;10000255;28;20058;-77
2023/08/26 03:03:48;;;;;;;12.88;11.75;;;;;;;;;;10022903;28;20088;-78
2023/08/26 03:08:40;;;;;;;12.20;11.00;;;;;;;;;;10004776;28;20046;-76
2023/08/26 03:13:32;;;;;;;12.95;11.75;;;;;;;;;;10005134;28;20052;-77
2023/08/26 03:18:24;;;;;;;11.80;10.70;;;;;;;;;;10027787;28;20049;-78
2023/08/26 03:23:16;;;;;;;12.85;11.70;;;;;;;;;;10033706;28;20045;-77
2023/08/26 03:28:09;;;;;;;13.13;11.93;;;;;;;;;;10005928;28;20038;-77
2023/08/26 03:33:03;;;;;;;15.02;12.52;;;;;;;;;;10015110;28;20046;-76
2023/08/26 03:37:56;;;;;;;14.45;13.05;;;;;;;;;;10044773;28;20397;-77
2023/08/26 03:42:52;;;;;;;15.05;13.55;;;;;;;;;;10044649;28;20085;-77
2023/08/26 03:47:43;;;;;;;17.63;13.15;;;;;;;;;;10062871;28;20041;-77
2023/08/26 03:52:36;;;;;;;17.80;13.45;;;;;;;;;;10045031;28;20321;-77
2023/08/26 03:57:27;;;;;;;13.48;12.10;;;;;;;;;;10062324;28;20049;-78
2023/08/26 04:02:21;;;;;;;13.90;12.60;;;;;;;;;;10045607;28;20077;-78
2023/08/26 04:07:13;;;;;;;12.55;11.18;;;;;;;;;;10052148;28;20073;-77
2023/08/26 04:12:05;;;;;;;13.93;12.52;;;;;;;;;;10020888;28;20045;-77
2023/08/26 04:16:57;;;;;;;14.65;13.25;;;;;;;;;;10028110;28;20044;-77
2023/08/26 04:21:49;;;;;;;16.35;13.98;;;;;;;;;;10045587;28;20045;-78
2023/08/26 04:26:41;;;;;;;13.25;12.05;;;;;;;;;;10010312;28;20045;-78
2023/08/26 04:31:33;;;;;;;13.68;12.48;;;;;;;;;;10004221;28;20124;-77
2023/08/26 04:36:25;;;;;;;15.15;13.32;;;;;;;;;;10024417;28;20095;-79
2023/08/26 04:41:17;;;;;;;17.45;13.60;;;;;;;;;;10013252;28;20041;-78
2023/08/26 04:46:09;;;;;;;14.50;13.15;;;;;;;;;;10027868;28;20042;-78
2023/08/26 04:51:04;;;;;;;13.95;12.55;;;;;;;;;;10011145;28;20089;-78
2023/08/26 04:55:57;;;;;;;14.25;12.98;;;;;;;;;;10028177;28;20121;-81
2023/08/26 05:00:51;;;;;;;14.10;12.77;;;;;;;;;;10010928;28;20136;-81
2023/08/26 05:05:44;;;;;;;14.13;12.90;;;;;;;;;;10010380;28;20050;-81
2023/08/26 05:10:37;;;;;;;14.38;12.98;;;;;;;;;;10010613;28;20046;-77
2023/08/26 05:15:29;;;;;;;19.40;14.48;;;;;;;;;;10026894;28;20140;-79
2023/08/26 05:20:21;;;;;;;14.10;12.70;;;;;;;;;;10010350;28;20151;-79
2023/08/26 05:25:12;;;;;;;15.90;12.85;;;;;;;;;;10009012;28;20041;-77
2023/08/26 05:30:05;;;;;;;13.98;12.57;;;;;;;;;;10027153;28;20112;-79
2023/08/26 05:35:05;;;;;;;13.07;11.80;;;;;;;;;;9986101;28;20449;-79
2023/08/26 05:39:56;;;;;;;16.05;12.25;;;;;;;;;;9970460;28;20046;-79
2023/08/26 05:44:49;;;;;;;17.38;12.10;;;;;;;;;;9993015;28;20046;-80
2023/08/26 05:49:42;;;;;;;14.50;13.20;;;;;;;;;;10009389;28;20116;-80
2023/08/26 05:54:34;;;;;;;13.98;12.60;;;;;;;;;;10007699;28;20042;-77
2023/08/26 05:59:28;;;;;;;14.45;13.02;;;;;;;;;;10008285;28;20050;-79
2023/08/26 06:04:20;;;;;;;14.32;12.93;;;;;;;;;;10007383;28;20042;-78
2023/08/26 06:09:13;;;;;;;17.33;14.35;;;;;;;;;;10008602;28;20042;-79
2023/08/26 06:14:05;;;;;;;15.90;14.23;;;;;;;;;;10007588;28;20045;-78
2023/08/26 06:18:57;;;;;;;14.82;13.38;;;;;;;;;;10006813;28;20438;-80
2023/08/26 06:23:51;;;;;;;15.35;12.07;;;;;;;;;;10025393;28;20042;-79
2023/08/26 06:28:43;;;;;;;15.02;13.30;;;;;;;;;;10024248;28;20421;-78
2023/08/26 06:33:35;;;;;;;17.70;11.57;;;;;;;;;;10007473;28;20045;-78
2023/08/26 06:38:30;;;;;;;12.68;11.48;;;;;;;;;;9976282;28;20168;-80
2023/08/26 06:43:22;;;;;;;18.27;15.93;;;;;;;;;;10006807;28;20127;-78
2023/08/26 06:48:17;;;;;;;17.98;13.93;;;;;;;;;;10006501;28;20502;-80
2023/08/26 06:53:09;;;;;;;16.63;14.88;;;;;;;;;;10006410;28;20045;-80
2023/08/26 06:58:01;;;;;;;24.52;15.68;;;;;;;;;;10023081;28;20054;-78
2023/08/26 07:02:53;;;;;;;16.00;13.75;;;;;;;;;;10023803;28;20049;-80
2023/08/26 07:07:45;;;;;;;15.60;14.13;;;;;;;;;;10023689;28;20060;-78
2023/08/26 07:12:37;;;;;;;15.90;14.40;;;;;;;;;;10023194;28;20049;-77
2023/08/26 07:17:29;;;;;;;17.95;16.08;;;;;;;;;;10022942;28;20054;-79
2023/08/26 07:22:21;;;;;;;17.10;15.40;;;;;;;;;;10023739;28;20060;-78
2023/08/26 07:27:20;;;;;;;19.83;17.95;;;;;;;;;;10023363;28;20069;-77
2023/08/26 07:32:12;;;;;;;23.70;21.13;;;;;;;;;;10023282;28;20049;-77
2023/08/26 07:37:04;;;;;;;20.00;18.10;;;;;;;;;;10023921;28;20429;-78
2023/08/26 07:41:56;;;;;;;22.90;20.35;;;;;;;;;;10031319;28;20237;-77
2023/08/26 07:46:50;;;;;;;20.20;18.25;;;;;;;;;;10030344;28;20403;-78
2023/08/26 07:51:44;;;;;;;22.77;20.15;;;;;;;;;;10031007;28;20049;-78
2023/08/26 07:56:36;;;;;;;19.50;17.45;;;;;;;;;;10028845;28;20087;-76
2023/08/26 08:01:28;;;;;;;18.63;16.63;;;;;;;;;;10029596;28;20468;-77
2023/08/26 08:06:21;;;;;;;19.63;15.98;;;;;;;;;;10030540;28;20069;-78
2023/08/26 08:11:13;;;;;;;25.63;19.98;;;;;;;;;;10030406;28;20101;-78
2023/08/26 08:16:04;;;;;;;19.08;17.25;;;;;;;;;;10029884;28;20047;-78
2023/08/26 08:20:57;;;;;;;19.70;17.50;;;;;;;;;;10029549;28;20420;-78
2023/08/26 08:25:49;;;;;;;18.17;16.25;;;;;;;;;;10028946;28;20472;-76
2023/08/26 08:30:41;;;;;;;17.60;15.88;;;;;;;;;;10029405;28;20100;-77
2023/08/26 08:35:33;;;;;;;15.43;13.93;;;;;;;;;;10016771;28;20050;-78
2023/08/26 08:40:25;;;;;;;17.98;16.27;;;;;;;;;;10028849;28;20041;-78
2023/08/26 08:45:17;;;;;;;46.65;18.13;;;;;;;;;;10029181;28;20049;-76
2023/08/26 08:50:09;;;;;;;15.23;13.77;;;;;;;;;;10025959;28;20053;-78
2023/08/26 08:55:03;;;;;;;17.65;15.05;;;;;;;;;;10027788;28;20060;-76
2023/08/26 08:59:57;;;;;;;17.00;15.35;;;;;;;;;;10028804;28;20054;-78
2023/08/26 09:04:49;;;;;;;15.93;13.82;;;;;;;;;;10027640;28;20340;-76
2023/08/26 09:09:41;;;;;;;17.33;12.68;;;;;;;;;;10026332;28;20491;-77
2023/08/26 09:14:51;;;;;;;18.27;16.50;;;;;;;;;;10028136;28;20612;-77
2023/08/26 09:19:58;;;;;;;14.35;13.13;;;;;;;;;;10029257;28;20085;-77
2023/08/26 09:24:56;;;;;;;14.88;13.57;;;;;;;;;;9999014;28;20452;-76
2023/08/26 09:29:49;;;;;;;20.42;17.13;;;;;;;;;;10026675;28;20054;-78
2023/08/26 09:34:41;;;;;;;16.60;14.90;;;;;;;;;;10023789;28;20042;-78
2023/08/26 09:39:33;;;;;;;18.48;14.00;;;;;;;;;;10025552;28;20054;-77
2023/08/26 09:44:26;;;;;;;17.58;14.93;;;;;;;;;;10025802;28;20137;-77
2023/08/26 09:49:18;;;;;;;17.38;15.60;;;;;;;;;;10025458;28;20042;-78
2023/08/26 09:54:13;;;;;;;19.27;17.15;;;;;;;;;;10024595;28;20045;-78
2023/08/26 09:59:05;;;;;;;15.10;13.50;;;;;;;;;;10024786;28;20083;-78
2023/08/26 10:04:04;;;;;;;26.00;16.58;;;;;;;;;;10024581;28;20500;-77
2023/08/26 10:09:05;;;;;;;14.82;13.52;;;;;;;;;;10027357;28;20037;-78
2023/08/26 10:13:59;;;;;;;13.77;11.90;;;;;;;;;;10058385;28;20104;-78
2023/08/26 10:18:54;;;;;;;14.75;13.30;;;;;;;;;;10022304;28;20058;-75
2023/08/26 10:23:48;;;;;;;15.85;14.35;;;;;;;;;;10022188;28;20046;-78
2023/08/26 10:28:40;;;;;;;17.23;13.63;;;;;;;;;;10036004;28;20104;-78
2023/08/26 10:34:00;;;;;;;13.32;11.98;;;;;;;;;;10022953;28;20053;-77
2023/08/26 10:38:59;;;;;;;12.80;11.65;;;;;;;;;;10024341;28;20044;-77
2023/08/26 10:44:01;;;;;;;14.32;13.13;;;;;;;;;;10024002;28;20050;-77
2023/08/26 10:48:55;;;;;;;14.93;12.23;;;;;;;;;;10023900;28;20240;-76
2023/08/26 10:53:48;;;;;;;17.23;12.45;;;;;;;;;;10024826;28;20050;-78
2023/08/26 10:58:48;;;;;;;25.30;14.45;;;;;;;;;;10023372;28;20137;-77
2023/08/26 11:03:39;;;;;;;16.30;13.48;;;;;;;;;;10025092;28;20076;-76
2023/08/26 11:08:33;;;;;;;13.30;11.93;;;;;;;;;;10023860;28;20088;-75
2023/08/26 11:13:27;;;;;;;17.17;11.80;;;;;;;;;;10021405;28;20056;-77
2023/08/26 11:18:20;;;;;;;14.48;11.75;;;;;;;;;;10056435;28;20041;-76
2023/08/26 11:23:12;;;;;;;13.90;11.65;;;;;;;;;;10024051;28;20456;-77
2023/08/26 11:28:07;;;;;;;12.20;10.18;;;;;;;;;;10020913;28;20049;-75
2023/08/26 11:32:59;;;;;;;15.30;11.88;;;;;;;;;;9990179;28;20056;-74
2023/08/26 11:37:51;;;;;;;25.88;10.43;;;;;;;;;;10054645;28;20337;-74
2023/08/26 11:42:47;;;;;;;11.57;10.48;;;;;;;;;;10005988;28;20170;-76
2023/08/26 11:47:39;;;;;;;14.15;10.75;;;;;;;;;;10022059;28;20046;-74
2023/08/26 11:52:36;;;;;;;12.00;9.63;;;;;;;;;;9984093;28;20141;-77
2023/08/26 11:57:28;;;;;;;12.18;10.90;;;;;;;;;;9983880;28;20126;-79
2023/08/26 12:02:22;;;;;;;11.77;10.45;;;;;;;;;;9997625;28;20054;-78
2023/08/26 12:07:14;;;;;;;13.90;11.70;;;;;;;;;;9983709;28;20473;-79
2023/08/26 12:12:06;;;;;;;11.15;10.15;;;;;;;;;;9982953;28;20043;-79
2023/08/26 12:17:04;;;;;;;10.88;9.75;;;;;;;;;;9981927;28;20146;-79
2023/08/26 12:21:58;;;;;;;10.98;9.88;;;;;;;;;;9978690;28;20112;-77
2023/08/26 12:26:51;;;;;;;13.27;9.80;;;;;;;;;;9984959;28;20081;-79
2023/08/26 12:31:43;;;;;;;11.90;9.23;;;;;;;;;;9985656;28;20121;-78
2023/08/26 12:36:35;;;;;;;11.25;10.15;;;;;;;;;;9984952;28;20444;-80
2023/08/26 12:41:27;;;;;;;11.27;10.05;;;;;;;;;;9984968;28;20062;-78
2023/08/26 12:46:19;;;;;;;12.77;9.90;;;;;;;;;;9984880;28;20391;-78
2023/08/26 12:51:11;;;;;;;11.38;9.70;;;;;;;;;;9984527;28;20057;-77
2023/08/26 12:56:03;;;;;;;11.23;8.95;;;;;;;;;;9984079;28;20069;-78
2023/08/26 13:00:55;;;;;;;10.77;9.77;;;;;;;;;;9966870;28;20050;-78
2023/08/26 13:05:55;;;;;;;12.43;9.30;;;;;;;;;;9984525;28;20046;-79
2023/08/26 13:10:48;;;;;;;10.40;9.30;;;;;;;;;;9984642;28;20210;-79
2023/08/26 13:15:42;;;;;;;11.88;10.75;;;;;;;;;;9967682;28;20078;-80
2023/08/26 13:20:34;;;;;;;14.85;10.18;;;;;;;;;;9984368;28;20144;-79
2023/08/26 13:25:26;;;;;;;10.05;9.15;;;;;;;;;;9984843;28;20125;-80
2023/08/26 13:30:17;;;;;;;10.70;9.48;;;;;;;;;;9966031;28;20111;-80
2023/08/26 13:35:09;;;;;;;9.48;8.65;;;;;;;;;;9983520;28;20528;-78
2023/08/26 13:40:01;;;;;;;11.32;8.05;;;;;;;;;;9988232;28;20057;-80
2023/08/26 13:44:53;;;;;;;13.18;8.88;;;;;;;;;;9987954;28;20051;-77
2023/08/26 13:49:45;;;;;;;10.90;9.75;;;;;;;;;;9987554;28;20051;-80
2023/08/26 13:54:37;;;;;;;9.50;8.38;;;;;;;;;;9987857;28;20097;-78
2023/08/26 13:59:29;;;;;;;9.65;8.85;;;;;;;;;;9987196;28;20056;-79
2023/08/26 14:04:22;;;;;;;9.75;8.75;;;;;;;;;;9969465;28;20101;-80
2023/08/26 14:09:14;;;;;;;13.15;9.13;;;;;;;;;;9986893;28;20054;-78
2023/08/26 14:14:05;;;;;;;9.05;8.15;;;;;;;;;;9986483;28;20468;-79
2023/08/26 14:18:57;;;;;;;9.48;8.50;;;;;;;;;;9986266;28;20046;-80
2023/08/26 14:23:49;;;;;;;12.32;7.88;;;;;;;;;;9986470;28;20042;-80
2023/08/26 14:28:41;;;;;;;8.77;7.97;;;;;;;;;;9986331;28;20118;-79
2023/08/26 14:33:33;;;;;;;9.65;7.78;;;;;;;;;;9986039;28;20234;-79
2023/08/26 14:38:26;;;;;;;8.07;7.32;;;;;;;;;;9986029;28;20516;-80
2023/08/26 14:43:18;;;;;;;9.77;7.72;;;;;;;;;;9985176;28;20053;-79
2023/08/26 14:48:10;;;;;;;9.98;8.25;;;;;;;;;;9986011;28;20468;-80
2023/08/26 14:53:03;;;;;;;9.82;8.25;;;;;;;;;;9985340;28;20373;-79
2023/08/26 14:57:56;;;;;;;9.00;7.75;;;;;;;;;;9985435;28;20046;-79
2023/08/26 15:02:48;;;;;;;8.63;7.88;;;;;;;;;;9984733;28;20054;-80
2023/08/26 15:07:40;;;;;;;11.82;8.77;;;;;;;;;;9985125;28;20096;-77
2023/08/26 15:12:32;;;;;;;10.23;8.10;;;;;;;;;;9984790;28;20125;-79
2023/08/26 15:17:25;;;;;;;8.75;7.40;;;;;;;;;;9984564;28;20042;-79
2023/08/26 15:22:17;;;;;;;11.55;8.57;;;;;;;;;;9984155;28;20069;-79
2023/08/26 15:27:09;;;;;;;9.82;8.82;;;;;;;;;;9984852;28;20057;-80
2023/08/26 15:32:01;;;;;;;8.50;7.47;;;;;;;;;;9967088;28;20088;-80
2023/08/26 15:36:53;;;;;;;9.20;7.43;;;;;;;;;;9984375;28;20138;-79
2023/08/26 15:41:44;;;;;;;12.38;6.82;;;;;;;;;;9984540;28;20046;-78
2023/08/26 15:46:37;;;;;;;5.53;4.75;;;;;;;;;;9984497;28;20045;-77
2023/08/26 15:51:29;;;;;;;5.88;3.65;;;;;;;;;;10014015;28;20038;-76
2023/08/26 15:56:21;;;;;;;9.38;4.55;;;;;;;;;;10025953;28;20118;-78
2023/08/26 16:01:13;;;;;;;5.30;3.10;;;;;;;;;;10059756;28;20058;-78
2023/08/26 16:06:08;;;;;;;9.07;4.35;;;;;;;;;;10029994;28;20413;-80
2023/08/26 16:11:01;;;;;;;7.47;3.50;;;;;;;;;;10029983;28;20534;-80
2023/08/26 16:15:53;;;;;;;6.75;3.80;;;;;;;;;;10044640;28;20112;-80
2023/08/26 16:20:45;;;;;;;11.10;3.90;;;;;;;;;;10051949;28;20137;-79
2023/08/26 16:25:37;;;;;;;6.38;3.60;;;;;;;;;;10044741;28;20050;-78
2023/08/26 16:30:29;;;;;;;8.57;3.35;;;;;;;;;;10036591;28;20053;-76
2023/08/26 16:35:21;;;;;;;9.13;4.20;;;;;;;;;;10049921;28;20092;-76
2023/08/26 16:40:13;;;;;;;6.20;3.22;;;;;;;;;;10049977;28;20056;-75
2023/08/26 16:45:06;;;;;;;9.73;4.20;;;;;;;;;;10067858;28;20045;-76
2023/08/26 16:49:58;;;;;;;13.82;4.13;;;;;;;;;;10059589;28;20045;-76
2023/08/26 16:54:50;;;;;;;8.02;4.05;;;;;;;;;;10065705;28;20103;-78
2023/08/26 16:59:42;;;;;;;7.85;4.32;;;;;;;;;;10037040;28;20533;-76
2023/08/26 17:04:34;;;;;;;7.70;4.30;;;;;;;;;;10050558;28;20056;-76
2023/08/26 17:09:26;;;;;;;8.95;5.13;;;;;;;;;;10026728;28;20046;-76
2023/08/26 17:14:19;;;;;;;5.70;4.35;;;;;;;;;;10024891;28;20427;-78
2023/08/26 17:19:11;;;;;;;13.00;4.85;;;;;;;;;;10040511;28;20041;-78
2023/08/26 17:24:03;;;;;;;5.30;4.05;;;;;;;;;;10009800;28;20041;-78
2023/08/26 17:28:55;;;;;;;7.63;4.00;;;;;;;;;;10027398;28;20038;-77
2023/08/26 17:33:53;;;;;;;12.68;4.05;;;;;;;;;;10027501;28;20053;-79
2023/08/26 17:38:45;;;;;;;7.93;3.58;;;;;;;;;;10027372;28;20478;-77
2023/08/26 17:43:38;;;;;;;10.77;5.30;;;;;;;;;;10026530;28;20495;-78
2023/08/26 17:48:34;;;;;;;6.35;3.72;;;;;;;;;;10026576;28;20042;-79
2023/08/26 17:53:26;;;;;;;5.47;3.75;;;;;;;;;;10026273;28;20045;-79
2023/08/26 17:58:21;;;;;;;4.05;3.30;;;;;;;;;;10026336;28;20056;-78
2023/08/26 18:03:14;;;;;;;6.18;4.00;;;;;;;;;;10030692;28;20497;-77
2023/08/26 18:08:09;;;;;;;5.28;3.60;;;;;;;;;;10054944;28;20068;-76
2023/08/26 18:13:06;;;;;;;7.95;3.58;;;;;;;;;;10065500;28;20383;-78
2023/08/26 18:17:58;;;;;;;5.00;3.17;;;;;;;;;;10029593;28;20119;-77
2023/08/26 18:22:52;;;;;;;5.18;3.92;;;;;;;;;;10050556;28;20133;-78
2023/08/26 18:27:44;;;;;;;5.55;3.45;;;;;;;;;;10022519;28;20045;-77
2023/08/26 18:32:36;;;;;;;10.93;4.88;;;;;;;;;;10021232;28;20093;-78
2023/08/26 18:37:31;;;;;;;9.02;4.53;;;;;;;;;;10021516;28;20053;-78
2023/08/26 18:42:31;;;;;;;7.25;4.15;;;;;;;;;;10022657;28;20054;-79
2023/08/26 18:47:25;;;;;;;6.05;4.30;;;;;;;;;;10024445;28;20053;-79
2023/08/26 18:52:18;;;;;;;6.50;3.80;;;;;;;;;;10024856;28;20129;-78
2023/08/26 18:57:10;;;;;;;7.38;3.63;;;;;;;;;;10023321;28;20377;-79
2023/08/26 19:02:02;;;;;;;7.05;4.22;;;;;;;;;;10024349;28;20078;-78
2023/08/26 19:06:53;;;;;;;9.60;4.43;;;;;;;;;;10020375;28;20072;-79
2023/08/26 19:11:45;;;;;;;10.15;4.38;;;;;;;;;;10018737;28;20050;-79
2023/08/26 19:16:40;;;;;;;10.45;4.85;;;;;;;;;;10024310;28;20127;-78
2023/08/26 19:21:35;;;;;;;8.93;4.88;;;;;;;;;;10001568;28;20046;-79
2023/08/26 19:26:28;;;;;;;21.95;7.25;;;;;;;;;;10021559;28;20084;-77
2023/08/26 19:31:20;;;;;;;14.40;6.78;;;;;;;;;;10044013;28;20073;-78
2023/08/26 19:36:12;;;;;;;29.48;5.85;;;;;;;;;;10028854;28;20380;-77
2023/08/26 19:41:04;;;;;;;22.73;6.40;;;;;;;;;;10020305;28;20095;-75
2023/08/26 19:45:56;;;;;;;20.63;8.30;;;;;;;;;;10022971;28;20086;-81
2023/08/26 19:50:49;;;;;;;17.33;6.65;;;;;;;;;;10030898;28;20409;-76
2023/08/26 19:55:41;;;;;;;16.30;7.30;;;;;;;;;;10022110;28;20098;-77
2023/08/26 20:00:32;;;;;;;23.17;8.07;;;;;;;;;;10022658;28;20092;-78
2023/08/26 20:05:25;;;;;;;10.85;6.40;;;;;;;;;;10022957;28;20108;-78
2023/08/26 20:10:17;;;;;;;9.40;6.47;;;;;;;;;;10022479;28;20081;-78
2023/08/26 20:15:09;;;;;;;17.75;6.30;;;;;;;;;;10022124;28;20050;-79
2023/08/26 20:20:01;;;;;;;9.20;7.43;;;;;;;;;;10022885;28;20175;-79
2023/08/26 20:24:53;;;;;;;20.90;7.00;;;;;;;;;;10023113;28;20038;-78
2023/08/26 20:29:45;;;;;;;13.57;6.45;;;;;;;;;;10022324;28;20058;-79
2023/08/26 20:34:37;;;;;;;12.30;6.82;;;;;;;;;;10022784;28;20049;-76
2023/08/26 20:39:28;;;;;;;22.23;8.20;;;;;;;;;;10022317;28;20045;-79
2023/08/26 20:44:20;;;;;;;17.83;8.25;;;;;;;;;;10023476;28;20046;-79
2023/08/26 20:49:12;;;;;;;14.00;7.28;;;;;;;;;;10029027;28;20429;-80
2023/08/26 20:54:04;;;;;;;17.05;7.40;;;;;;;;;;10029122;28;20072;-79
2023/08/26 20:58:56;;;;;;;9.27;6.80;;;;;;;;;;10026721;28;20482;-76
2023/08/26 21:03:48;;;;;;;11.88;6.10;;;;;;;;;;10028839;28;20042;-78
2023/08/26 21:08:41;;;;;;;8.95;6.03;;;;;;;;;;10027769;28;20195;-80
2023/08/26 21:13:32;;;;;;;20.08;6.85;;;;;;;;;;10025977;28;20041;-78
2023/08/26 21:18:24;;;;;;;16.92;6.68;;;;;;;;;;10027840;28;20045;-76
2023/08/26 21:23:16;;;;;;;16.63;5.95;;;;;;;;;;10028014;28;20318;-81
2023/08/26 21:28:08;;;;;;;14.48;6.38;;;;;;;;;;10027492;28;20042;-80
2023/08/26 21:33:02;;;;;;;14.88;6.80;;;;;;;;;;10027712;28;20049;-78
2023/08/26 21:37:54;;;;;;;12.80;5.82;;;;;;;;;;10027456;28;20129;-79
2023/08/26 21:42:46;;;;;;;9.98;6.43;;;;;;;;;;10027001;28;20353;-80
2023/08/26 21:47:38;;;;;;;36.33;8.15;;;;;;;;;;10026891;28;20042;-79
2023/08/26 21:52:30;;;;;;;18.52;8.63;;;;;;;;;;10027443;28;20499;-79
2023/08/26 21:57:22;;;;;;;10.23;5.85;;;;;;;;;;10025513;28;20129;-80
2023/08/26 22:02:15;;;;;;;11.98;6.65;;;;;;;;;;10025916;28;20357;-80
2023/08/26 22:07:07;;;;;;;11.90;6.70;;;;;;;;;;10026146;28;20064;-79
2023/08/26 22:11:59;;;;;;;9.52;7.03;;;;;;;;;;10025814;28;20076;-79
2023/08/26 22:16:51;;;;;;;12.75;7.30;;;;;;;;;;10026184;28;20089;-80
2023/08/26 22:21:43;;;;;;;10.77;6.40;;;;;;;;;;10025369;28;20395;-79
2023/08/26 22:26:34;;;;;;;12.10;6.35;;;;;;;;;;10025375;28;20492;-79
2023/08/26 22:31:27;;;;;;;12.60;6.93;;;;;;;;;;10024356;28;20057;-79
2023/08/26 22:36:18;;;;;;;11.70;7.03;;;;;;;;;;10024813;28;20038;-78
2023/08/26 22:41:10;;;;;;;13.68;6.57;;;;;;;;;;10007184;28;20061;-78
2023/08/26 22:46:02;;;;;;;9.07;6.43;;;;;;;;;;10025060;28;20050;-79
2023/08/26 22:50:54;;;;;;;8.95;6.40;;;;;;;;;;10024698;28;20066;-80
2023/08/26 22:55:46;;;;;;;13.57;7.00;;;;;;;;;;10024819;28;20448;-79
2023/08/26 23:00:42;;;;;;;17.95;7.25;;;;;;;;;;10023568;28;20054;-79
2023/08/26 23:05:34;;;;;;;10.40;7.20;;;;;;;;;;10022644;28;20093;-79
2023/08/26 23:10:25;;;;;;;12.48;7.40;;;;;;;;;;10022908;28;20046;-77
2023/08/26 23:15:17;;;;;;;11.15;7.85;;;;;;;;;;10023858;28;20050;-79
2023/08/26 23:20:10;;;;;;;12.68;7.57;;;;;;;;;;10023832;28;20108;-80
2023/08/26 23:25:02;;;;;;;8.73;7.10;;;;;;;;;;10023586;28;20112;-81
2023/08/26 23:29:54;;;;;;;11.93;7.43;;;;;;;;;;10023964;28;20335;-81
2023/08/26 23:34:46;;;;;;;9.20;7.05;;;;;;;;;;10024079;28;20050;-81
2023/08/26 23:39:37;;;;;;;10.07;7.65;;;;;;;;;;10023010;28;20353;-78
2023/08/26 23:44:29;;;;;;;12.55;7.63;;;;;;;;;;10023935;28;20050;-76
2023/08/26 23:49:21;;;;;;;10.05;6.90;;;;;;;;;;10022027;28;20148;-80
2023/08/26 23:54:13;;;;;;;13.10;6.38;;;;;;;;;;10021888;28;20049;-79
2023/08/26 23:59:05;;;;;;;9.00;6.50;;;;;;;;;;10022779;28;20038;-79
